Time;durP1;ratioP1;P1;durP2;ratioP2;P2;SDS_P1;SDS_P2;PMS_P1;PMS_P2;Temp;Humidity;BMP_temperature;BMP_pressure;BME280_temperature;BME280_humidity;BME280_pressure;Samples;Min_cycle;Max_cycle;Signal;HPM_P1;HPM_P2
2022/01/03 00:00:11;;;;;;;16.48;2.42;;;12.60;77.90;;;;;;5074160;28;20039;-83
2022/01/03 00:02:38;;;;;;;12.82;3.28;;;12.60;77.90;;;;;;5057715;28;20040;-83
2022/01/03 00:05:04;;;;;;;9.65;2.60;;;12.60;77.90;;;;;;5057457;28;20032;-83
2022/01/03 00:07:32;;;;;;;10.50;2.53;;;12.60;77.90;;;;;;5074245;28;20052;-83
2022/01/03 00:09:57;;;;;;;10.07;1.83;;;12.60;77.90;;;;;;5074959;28;20039;-83
2022/01/03 00:12:24;;;;;;;15.52;2.55;;;12.60;77.90;;;;;;5074039;28;20028;-83
2022/01/03 00:14:50;;;;;;;11.93;2.38;;;12.50;77.90;;;;;;5075194;28;20028;-83
2022/01/03 00:17:16;;;;;;;12.35;2.33;;;12.50;78.00;;;;;;5073760;28;20028;-83
2022/01/03 00:19:42;;;;;;;13.80;2.75;;;12.50;78.10;;;;;;5073741;28;20086;-83
2022/01/03 00:22:13;;;;;;;12.02;2.72;;;12.50;78.10;;;;;;5074715;28;20037;-82
2022/01/03 00:24:45;;;;;;;14.75;3.47;;;12.50;78.10;;;;;;5074833;28;20425;-83
2022/01/03 00:27:14;;;;;;;7.72;1.92;;;12.50;78.00;;;;;;5074651;28;20052;-83
2022/01/03 00:29:59;;;;;;;16.98;4.28;;;12.50;78.00;;;;;;5057558;28;20113;-83
2022/01/03 00:32:26;;;;;;;15.65;2.80;;;12.60;77.90;;;;;;5057352;28;20219;-83
2022/01/03 00:34:52;;;;;;;18.63;3.30;;;12.60;77.90;;;;;;5074169;28;20086;-83
2022/01/03 00:37:21;;;;;;;13.82;3.33;;;12.60;77.90;;;;;;5073241;28;20029;-84
2022/01/03 00:39:47;;;;;;;15.15;3.38;;;12.60;77.90;;;;;;5073747;28;20040;-83
2022/01/03 00:42:14;;;;;;;18.27;4.57;;;12.60;77.90;;;;;;5057270;28;20024;-83
2022/01/03 00:44:42;;;;;;;16.23;6.00;;;12.60;77.90;;;;;;5056898;28;20390;-83
2022/01/03 00:47:10;;;;;;;21.58;4.40;;;12.60;77.80;;;;;;5040301;28;20066;-83
2022/01/03 00:49:40;;;;;;;18.25;4.63;;;12.60;77.70;;;;;;5073355;28;20047;-83
2022/01/03 00:52:05;;;;;;;13.18;3.20;;;12.60;77.70;;;;;;5073507;28;20063;-83
2022/01/03 00:54:31;;;;;;;18.17;3.30;;;12.60;77.80;;;;;;5073316;28;20059;-84
2022/01/03 00:57:04;;;;;;;11.63;2.97;;;12.60;77.70;;;;;;5073502;28;20025;-83
2022/01/03 00:59:40;;;;;;;12.57;2.88;;;12.60;77.70;;;;;;5056816;28;20043;-83
2022/01/03 01:02:08;;;;;;;17.38;4.20;;;12.60;77.70;;;;;;5073846;28;20047;-83
2022/01/03 01:04:35;;;;;;;13.80;3.22;;;12.60;77.60;;;;;;5073450;28;20365;-83
2022/01/03 01:07:05;;;;;;;19.67;3.28;;;12.60;77.60;;;;;;5073289;28;20021;-84
2022/01/03 01:09:33;;;;;;;16.75;3.88;;;12.60;77.50;;;;;;5073012;28;20060;-84
2022/01/03 01:12:03;;;;;;;19.67;3.30;;;12.50;77.50;;;;;;5070554;28;20441;-84
2022/01/03 01:14:35;;;;;;;17.00;3.42;;;12.60;77.60;;;;;;5069178;28;20025;-83
2022/01/03 01:17:03;;;;;;;23.27;3.72;;;12.60;77.60;;;;;;5057095;28;20021;-83
2022/01/03 01:19:29;;;;;;;16.67;3.45;;;12.60;77.50;;;;;;5055674;28;20086;-84
2022/01/03 01:21:56;;;;;;;17.48;3.85;;;12.60;77.50;;;;;;5071488;28;20051;-83
2022/01/03 01:24:24;;;;;;;16.00;3.83;;;12.50;77.40;;;;;;5075962;28;20025;-83
2022/01/03 01:29:37;;;;;;;15.18;3.47;;;12.50;77.40;;;;;;5081059;28;20044;-84
2022/01/03 01:32:06;;;;;;;14.13;3.17;;;12.50;77.30;;;;;;5070656;28;20025;-82
2022/01/03 01:34:34;;;;;;;14.55;4.45;;;12.50;77.30;;;;;;5081045;28;20036;-84
2022/01/03 01:37:01;;;;;;;13.70;3.08;;;12.50;77.30;;;;;;5071542;28;20036;-84
2022/01/03 01:39:29;;;;;;;10.15;2.92;;;12.50;77.30;;;;;;5076924;28;20085;-84
2022/01/03 01:41:57;;;;;;;18.95;3.70;;;12.50;77.20;;;;;;5072712;28;20025;-83
2022/01/03 01:44:25;;;;;;;13.55;3.45;;;12.50;77.10;;;;;;5057968;28;20108;-84
2022/01/03 01:46:56;;;;;;;12.27;2.55;;;12.50;77.00;;;;;;5068872;28;20381;-83
2022/01/03 01:49:26;;;;;;;13.75;2.80;;;12.50;76.90;;;;;;5058864;28;20029;-83
2022/01/03 01:52:02;;;;;;;17.63;3.47;;;12.50;77.00;;;;;;5060705;28;20028;-83
2022/01/03 01:54:34;;;;;;;15.23;2.88;;;12.50;77.00;;;;;;5063620;28;20556;-84
2022/01/03 01:57:16;;;;;;;13.55;3.40;;;12.50;77.00;;;;;;5071924;28;20494;-83
2022/01/03 02:00:26;;;;;;;14.48;2.75;;;12.50;76.90;;;;;;5078625;28;20025;-83
2022/01/03 02:03:30;;;;;;;15.98;2.95;;;12.50;76.80;;;;;;5010629;28;20036;-82
2022/01/03 02:06:25;;;;;;;16.65;3.10;;;12.50;76.90;;;;;;5003336;28;20382;-83
2022/01/03 02:09:17;;;;;;;18.77;3.55;;;12.50;76.80;;;;;;5018287;28;20136;-84
2022/01/03 02:11:52;;;;;;;16.50;3.20;;;12.50;76.70;;;;;;5005138;28;20045;-83
2022/01/03 02:14:22;;;;;;;18.55;3.22;;;12.50;76.70;;;;;;5031648;28;20117;-83
2022/01/03 02:16:53;;;;;;;13.55;2.60;;;12.50;76.60;;;;;;5011181;28;20076;-83
2022/01/03 02:19:20;;;;;;;18.42;3.20;;;12.50;76.60;;;;;;5002335;28;20370;-83
2022/01/03 02:21:48;;;;;;;17.58;3.38;;;12.50;76.70;;;;;;5028306;28;20041;-84
2022/01/03 02:24:19;;;;;;;13.00;3.15;;;12.50;76.60;;;;;;5004702;28;20145;-83
2022/01/03 02:26:47;;;;;;;16.38;2.92;;;12.50;76.70;;;;;;5002749;28;20132;-83
2022/01/03 02:29:13;;;;;;;14.02;2.70;;;12.50;76.70;;;;;;5003080;28;20473;-83
2022/01/03 02:31:39;;;;;;;10.40;3.35;;;12.50;76.70;;;;;;5015273;28;20026;-83
2022/01/03 02:34:05;;;;;;;15.27;3.70;;;12.50;76.80;;;;;;5047229;28;20032;-83
2022/01/03 02:36:33;;;;;;;15.05;2.72;;;12.40;76.70;;;;;;5059207;28;20039;-83
2022/01/03 02:38:59;;;;;;;19.33;3.78;;;12.50;76.80;;;;;;5075880;28;20038;-83
2022/01/03 02:41:25;;;;;;;12.25;3.45;;;12.50;76.70;;;;;;5075548;28;20411;-83
2022/01/03 02:43:55;;;;;;;17.42;3.53;;;12.40;76.70;;;;;;5075589;28;20040;-84
2022/01/03 02:46:21;;;;;;;15.88;4.03;;;12.50;76.90;;;;;;5057872;28;20024;-83
2022/01/03 02:48:46;;;;;;;20.67;3.95;;;12.50;76.90;;;;;;5058923;28;20036;-83
2022/01/03 02:51:13;;;;;;;18.92;3.60;;;12.40;76.90;;;;;;5074977;28;20039;-83
2022/01/03 02:53:39;;;;;;;15.98;3.05;;;12.40;76.90;;;;;;5075640;28;20021;-83
2022/01/03 02:56:05;;;;;;;14.48;2.92;;;12.40;76.90;;;;;;5058754;28;20123;-83
2022/01/03 02:58:31;;;;;;;15.00;2.90;;;12.40;76.90;;;;;;5058484;28;20021;-83
2022/01/03 03:00:57;;;;;;;11.63;2.80;;;12.40;76.90;;;;;;5074230;28;20039;-83
2022/01/03 03:03:29;;;;;;;11.43;3.90;;;12.50;76.90;;;;;;5075783;28;20025;-83
2022/01/03 03:05:58;;;;;;;14.00;2.55;;;12.50;76.80;;;;;;5055605;28;20021;-83
2022/01/03 03:08:25;;;;;;;11.70;2.90;;;12.50;76.80;;;;;;5057485;28;20052;-83
2022/01/03 03:10:50;;;;;;;20.75;3.25;;;12.50;76.70;;;;;;5057837;28;20465;-83
2022/01/03 03:13:16;;;;;;;17.35;3.13;;;12.40;76.70;;;;;;5058308;28;20079;-83
2022/01/03 03:15:42;;;;;;;12.75;2.55;;;12.40;76.80;;;;;;5074850;28;20528;-84
2022/01/03 03:18:09;;;;;;;15.02;3.30;;;12.40;76.80;;;;;;5074870;28;20029;-83
2022/01/03 03:20:36;;;;;;;15.40;3.58;;;12.40;76.80;;;;;;5074492;28;20352;-83
2022/01/03 03:23:03;;;;;;;13.82;3.45;;;12.40;76.80;;;;;;5074938;28;20030;-83
2022/01/03 03:25:35;;;;;;;15.30;3.05;;;12.40;76.90;;;;;;5074772;28;20119;-83
2022/01/03 03:28:05;;;;;;;12.52;3.35;;;12.40;76.80;;;;;;5075061;28;20032;-83
2022/01/03 03:30:39;;;;;;;15.40;2.53;;;12.40;76.70;;;;;;5074576;28;20089;-83
2022/01/03 03:33:13;;;;;;;11.32;2.55;;;12.40;76.70;;;;;;5074320;28;20032;-83
2022/01/03 03:35:42;;;;;;;13.48;2.88;;;12.40;76.70;;;;;;5075007;28;20044;-83
2022/01/03 03:38:08;;;;;;;15.35;3.92;;;12.40;76.70;;;;;;5073891;28;20361;-83
2022/01/03 03:40:35;;;;;;;15.77;3.75;;;12.40;76.60;;;;;;5073943;28;20036;-83
2022/01/03 03:43:01;;;;;;;10.73;2.78;;;12.40;76.60;;;;;;5066390;28;20039;-84
2022/01/03 03:45:27;;;;;;;13.45;3.25;;;12.40;76.60;;;;;;5094515;28;20017;-83
2022/01/03 03:47:53;;;;;;;13.68;3.10;;;12.40;76.70;;;;;;5059000;28;20087;-83
2022/01/03 03:50:20;;;;;;;12.32;2.58;;;12.40;76.70;;;;;;5065479;28;20123;-84
2022/01/03 03:52:46;;;;;;;20.08;3.33;;;12.40;76.70;;;;;;5074266;28;20088;-83
2022/01/03 03:55:12;;;;;;;16.83;3.92;;;12.40;76.60;;;;;;5058175;28;20090;-83
2022/01/03 03:57:38;;;;;;;15.68;3.22;;;12.40;76.60;;;;;;5057434;28;20089;-83
2022/01/03 04:00:12;;;;;;;14.38;3.65;;;12.40;76.60;;;;;;5076368;28;20032;-83
2022/01/03 04:02:42;;;;;;;12.95;2.80;;;12.40;76.60;;;;;;5065046;28;20029;-83
2022/01/03 04:05:12;;;;;;;14.90;3.67;;;12.40;76.60;;;;;;5095163;28;20048;-83
2022/01/03 04:07:40;;;;;;;15.95;3.22;;;12.40;77.20;;;;;;5077974;28;20033;-83
2022/01/03 04:10:08;;;;;;;14.43;2.70;;;12.40;76.60;;;;;;5076389;28;20020;-83
2022/01/03 04:12:35;;;;;;;11.88;3.67;;;12.30;76.60;;;;;;5073068;28;20455;-83
2022/01/03 04:15:04;;;;;;;14.05;2.70;;;12.40;76.70;;;;;;5073796;28;20025;-83
2022/01/03 04:17:31;;;;;;;13.00;3.17;;;12.30;76.70;;;;;;5073007;28;20383;-83
2022/01/03 04:19:57;;;;;;;15.48;3.25;;;12.40;76.70;;;;;;5057763;28;20032;-82
2022/01/03 04:22:23;;;;;;;14.18;2.95;;;12.30;76.50;;;;;;5074161;28;20028;-83
2022/01/03 04:24:49;;;;;;;16.45;3.92;;;12.30;76.60;;;;;;5072824;28;20449;-83
2022/01/03 04:27:15;;;;;;;16.38;3.83;;;12.30;76.50;;;;;;5074190;28;20025;-83
2022/01/03 04:29:41;;;;;;;15.82;3.80;;;12.30;77.20;;;;;;5073315;28;20027;-83
2022/01/03 04:32:07;;;;;;;16.70;3.72;;;12.30;76.50;;;;;;5073507;28;20025;-83
2022/01/03 04:34:33;;;;;;;15.52;3.47;;;12.30;76.50;;;;;;5073867;28;20024;-83
2022/01/03 04:36:58;;;;;;;15.95;3.50;;;12.30;76.50;;;;;;5056790;28;20025;-83
2022/01/03 04:39:24;;;;;;;15.35;4.00;;;12.30;76.50;;;;;;5055089;28;20033;-83
2022/01/03 04:41:50;;;;;;;14.70;3.97;;;12.30;76.40;;;;;;5053657;28;20032;-83
2022/01/03 04:44:16;;;;;;;13.30;3.47;;;12.30;76.50;;;;;;5040374;28;20063;-83
2022/01/03 04:46:43;;;;;;;13.63;3.10;;;12.30;76.50;;;;;;5073316;28;20429;-83
2022/01/03 04:49:09;;;;;;;17.25;3.70;;;12.30;76.50;;;;;;5073422;28;20044;-83
2022/01/03 04:51:35;;;;;;;15.05;3.70;;;12.30;76.50;;;;;;5073330;28;20117;-83
2022/01/03 04:54:02;;;;;;;16.42;3.83;;;12.30;76.50;;;;;;5053475;28;20021;-83
2022/01/03 04:56:28;;;;;;;13.48;3.15;;;12.30;76.60;;;;;;5055673;28;20036;-83
2022/01/03 04:58:55;;;;;;;18.10;4.03;;;12.30;76.50;;;;;;5073393;28;20449;-83
2022/01/03 05:01:23;;;;;;;18.23;4.40;;;12.30;76.60;;;;;;5056911;28;20037;-83
2022/01/03 05:03:49;;;;;;;22.30;4.15;;;12.30;76.50;;;;;;5071878;28;20021;-83
2022/01/03 05:06:17;;;;;;;15.07;3.70;;;12.30;76.50;;;;;;5074501;28;20029;-83
2022/01/03 05:08:43;;;;;;;12.38;3.00;;;12.30;76.50;;;;;;5073015;28;20082;-83
2022/01/03 05:11:11;;;;;;;14.90;3.53;;;12.30;76.50;;;;;;5055275;28;20528;-83
2022/01/03 05:13:37;;;;;;;18.25;4.07;;;12.30;76.50;;;;;;5054522;28;20028;-83
2022/01/03 05:16:03;;;;;;;17.05;4.40;;;12.30;76.50;;;;;;5071178;28;20352;-83
2022/01/03 05:18:31;;;;;;;17.63;3.97;;;12.30;76.50;;;;;;5072559;28;20031;-83
2022/01/03 05:20:57;;;;;;;19.40;3.65;;;12.30;76.50;;;;;;5073164;28;20029;-83
2022/01/03 05:23:24;;;;;;;14.40;3.00;;;12.30;76.50;;;;;;5075090;28;20024;-82
2022/01/03 05:25:50;;;;;;;12.80;3.85;;;12.30;76.50;;;;;;5057162;28;20140;-82
2022/01/03 05:28:16;;;;;;;12.48;3.13;;;12.30;76.60;;;;;;5056908;28;20025;-82
2022/01/03 05:30:44;;;;;;;18.25;3.20;;;12.30;76.60;;;;;;5074519;28;20028;-82
2022/01/03 05:33:12;;;;;;;14.05;3.42;;;12.30;76.60;;;;;;5076427;28;20041;-83
2022/01/03 05:35:38;;;;;;;14.77;3.83;;;12.30;76.70;;;;;;5060023;28;20449;-82
2022/01/03 05:38:06;;;;;;;16.15;4.50;;;12.20;76.60;;;;;;5060151;28;20369;-82
2022/01/03 05:40:33;;;;;;;18.85;3.67;;;12.30;76.70;;;;;;5060180;28;20528;-83
2022/01/03 05:42:59;;;;;;;17.45;3.88;;;12.30;77.40;;;;;;5075966;28;20032;-82
2022/01/03 05:45:24;;;;;;;14.18;3.47;;;12.30;76.70;;;;;;5075923;28;20016;-82
2022/01/03 05:47:52;;;;;;;19.17;3.63;;;12.30;76.70;;;;;;5056880;28;20296;-82
2022/01/03 05:50:20;;;;;;;17.25;3.22;;;12.30;76.70;;;;;;5059870;28;20031;-83
2022/01/03 05:52:47;;;;;;;13.90;3.80;;;12.30;76.60;;;;;;5060289;28;20143;-82
2022/01/03 05:55:15;;;;;;;14.65;3.25;;;12.30;76.60;;;;;;5026707;28;20024;-82
2022/01/03 05:57:42;;;;;;;17.45;3.85;;;12.30;76.60;;;;;;5061909;28;20032;-82
2022/01/03 06:00:15;;;;;;;16.33;3.17;;;12.30;76.50;;;;;;5086029;28;20029;-81
2022/01/03 06:02:43;;;;;;;18.27;3.70;;;12.40;76.60;;;;;;5088056;28;20024;-83
2022/01/03 06:05:31;;;;;;;13.30;3.30;;;12.40;76.60;;;;;;5073213;28;20040;-83
2022/01/03 06:07:59;;;;;;;15.38;3.30;;;12.30;76.50;;;;;;5083174;28;20028;-82
2022/01/03 06:10:29;;;;;;;15.43;3.45;;;12.30;76.50;;;;;;5059963;28;20021;-82
2022/01/03 06:12:57;;;;;;;14.77;4.03;;;12.30;76.60;;;;;;5076095;28;20024;-72
2022/01/03 06:15:24;;;;;;;17.38;3.50;;;12.30;76.60;;;;;;5059247;28;20100;-73
2022/01/03 06:17:51;;;;;;;15.98;3.67;;;12.30;76.60;;;;;;5059245;28;20461;-72
2022/01/03 06:20:18;;;;;;;17.45;3.70;;;12.30;76.60;;;;;;5075001;28;20115;-72
2022/01/03 06:22:44;;;;;;;17.63;4.18;;;12.30;76.60;;;;;;5076541;28;20040;-71
2022/01/03 06:25:11;;;;;;;13.45;3.65;;;12.30;76.50;;;;;;5058127;28;20046;-70
2022/01/03 06:27:38;;;;;;;13.40;3.58;;;12.30;76.50;;;;;;5075695;28;20029;-71
2022/01/03 06:30:06;;;;;;;16.80;3.20;;;12.30;76.80;;;;;;5074805;28;20115;-71
2022/01/03 06:32:36;;;;;;;15.98;3.25;;;12.30;76.50;;;;;;5077147;28;20041;-72
2022/01/03 06:35:03;;;;;;;15.82;3.17;;;12.30;76.50;;;;;;5056087;28;20345;-72
2022/01/03 06:37:30;;;;;;;14.48;2.75;;;12.30;76.50;;;;;;5046053;28;20055;-73
2022/01/03 06:40:05;;;;;;;18.90;4.25;;;12.30;76.40;;;;;;5074584;28;20025;-71
2022/01/03 06:42:32;;;;;;;12.73;3.80;;;12.30;76.40;;;;;;5075775;28;20571;-72
2022/01/03 06:44:58;;;;;;;16.00;3.08;;;12.30;76.30;;;;;;5074650;28;20029;-72
2022/01/03 06:47:25;;;;;;;15.88;3.65;;;12.20;76.30;;;;;;5075333;28;20029;-71
2022/01/03 06:49:51;;;;;;;12.43;2.67;;;12.30;76.40;;;;;;5075269;28;20037;-71
2022/01/03 06:52:17;;;;;;;14.98;2.97;;;12.30;76.40;;;;;;5075396;28;20027;-71
2022/01/03 06:54:43;;;;;;;16.35;3.22;;;12.30;76.40;;;;;;5075066;28;20032;-71
2022/01/03 06:57:09;;;;;;;12.80;2.80;;;12.30;76.20;;;;;;5054173;28;20476;-72
2022/01/03 06:59:37;;;;;;;17.83;2.78;;;12.30;76.10;;;;;;5055891;28;20029;-71
2022/01/03 07:02:04;;;;;;;12.60;3.30;;;12.30;76.10;;;;;;5051964;28;20033;-71
2022/01/03 07:04:30;;;;;;;16.60;3.33;;;12.30;76.10;;;;;;5057370;28;20035;-71
2022/01/03 07:06:56;;;;;;;16.40;3.10;;;12.30;76.00;;;;;;5056518;28;20037;-71
2022/01/03 07:09:21;;;;;;;11.77;3.30;;;12.30;76.00;;;;;;5044271;28;20052;-72
2022/01/03 07:11:47;;;;;;;15.43;3.20;;;12.30;75.90;;;;;;5072477;28;20067;-71
2022/01/03 07:20:00;;;;;;;11.32;3.20;;;12.30;75.70;;;;;;5076442;28;20393;-71
2022/01/03 07:22:26;;;;;;;17.65;3.63;;;12.30;75.80;;;;;;5057921;28;20060;-71
2022/01/03 07:24:53;;;;;;;11.65;2.60;;;12.30;75.80;;;;;;5076183;28;20040;-71
2022/01/03 07:27:19;;;;;;;14.15;3.20;;;12.40;75.80;;;;;;5074654;28;20032;-73
2022/01/03 07:29:46;;;;;;;10.35;3.58;;;12.40;75.80;;;;;;5058160;28;20028;-73
2022/01/03 07:32:12;;;;;;;14.85;3.53;;;12.40;75.80;;;;;;5057980;28;20461;-68
2022/01/03 07:34:38;;;;;;;11.70;2.90;;;12.40;75.70;;;;;;5075355;28;20032;-70
2022/01/03 07:37:04;;;;;;;13.02;3.58;;;12.40;75.70;;;;;;5074373;28;20029;-72
2022/01/03 07:39:30;;;;;;;11.60;2.88;;;12.40;75.70;;;;;;5075911;28;20029;-72
2022/01/03 07:41:57;;;;;;;11.02;3.30;;;12.40;75.70;;;;;;5057622;28;20047;-71
2022/01/03 07:44:24;;;;;;;10.45;2.90;;;12.50;75.70;;;;;;5074526;28;20472;-72
2022/01/03 07:46:50;;;;;;;10.23;3.17;;;12.40;75.60;;;;;;5074663;28;20128;-70
2022/01/03 07:49:15;;;;;;;13.57;3.75;;;12.50;75.70;;;;;;5075236;28;20033;-71
2022/01/03 07:51:41;;;;;;;11.80;3.00;;;12.50;75.60;;;;;;5074440;28;20043;-71
2022/01/03 07:54:07;;;;;;;17.48;3.55;;;12.50;75.60;;;;;;5073388;28;20028;-71
2022/01/03 07:56:33;;;;;;;13.93;3.15;;;12.50;75.60;;;;;;5074131;28;20445;-74
2022/01/03 07:58:59;;;;;;;10.68;2.85;;;12.50;76.30;;;;;;5073984;28;20039;-74
2022/01/03 08:01:25;;;;;;;13.30;3.15;;;12.50;75.70;;;;;;5073368;28;20020;-74
2022/01/03 08:03:50;;;;;;;12.70;3.28;;;12.50;75.60;;;;;;5073701;28;20029;-74
2022/01/03 08:06:16;;;;;;;12.90;2.92;;;12.40;75.60;;;;;;5074695;28;20040;-74
2022/01/03 08:08:41;;;;;;;14.73;3.47;;;12.40;75.60;;;;;;5074539;28;20031;-73
2022/01/03 08:11:07;;;;;;;13.13;3.28;;;12.50;75.60;;;;;;5074320;28;20108;-74
2022/01/03 08:13:33;;;;;;;12.82;3.17;;;12.40;75.50;;;;;;5074381;28;20024;-74
2022/01/03 08:15:58;;;;;;;10.43;3.15;;;12.50;75.60;;;;;;5056645;28;20029;-74
2022/01/03 08:18:24;;;;;;;13.65;3.22;;;12.50;75.60;;;;;;5073207;28;20028;-75
2022/01/03 08:20:52;;;;;;;10.52;2.97;;;12.50;75.50;;;;;;5070568;28;20040;-76
2022/01/03 08:23:18;;;;;;;11.35;3.38;;;12.50;75.50;;;;;;5071065;28;20032;-75
2022/01/03 08:25:44;;;;;;;13.35;3.10;;;12.50;75.40;;;;;;5054399;28;20033;-76
2022/01/03 08:28:11;;;;;;;10.65;3.42;;;12.50;75.40;;;;;;5080227;28;20281;-73
2022/01/03 08:30:37;;;;;;;11.52;2.80;;;12.50;75.40;;;;;;5072526;28;20043;-75
2022/01/03 08:33:04;;;;;;;16.85;3.25;;;12.40;75.40;;;;;;5073741;28;20060;-73
2022/01/03 08:35:30;;;;;;;13.70;3.08;;;12.50;75.50;;;;;;5073464;28;20078;-76
2022/01/03 08:37:57;;;;;;;12.38;3.08;;;12.40;75.40;;;;;;5071868;28;20094;-75
2022/01/03 08:40:24;;;;;;;11.43;2.97;;;12.40;75.30;;;;;;5072321;28;20035;-72
2022/01/03 08:42:51;;;;;;;10.50;2.75;;;12.50;75.30;;;;;;5070721;28;20029;-74
2022/01/03 08:45:17;;;;;;;13.45;3.33;;;12.50;75.30;;;;;;5072042;28;20392;-76
2022/01/03 08:47:43;;;;;;;15.40;4.63;;;12.50;75.20;;;;;;5073624;28;20460;-75
2022/01/03 08:50:09;;;;;;;12.07;2.47;;;12.50;75.10;;;;;;5073000;28;20067;-75
2022/01/03 08:52:35;;;;;;;10.65;2.90;;;12.50;75.10;;;;;;5055653;28;20483;-74
2022/01/03 08:55:01;;;;;;;15.05;3.75;;;12.50;75.00;;;;;;5073331;28;20028;-74
2022/01/03 08:57:27;;;;;;;10.35;2.97;;;12.50;75.00;;;;;;5075009;28;20025;-74
2022/01/03 08:59:52;;;;;;;12.10;2.75;;;12.50;75.00;;;;;;5079675;28;20035;-74
2022/01/03 09:02:18;;;;;;;17.40;3.30;;;12.50;75.00;;;;;;5079321;28;20032;-74
2022/01/03 09:04:45;;;;;;;14.50;3.30;;;12.50;75.60;;;;;;5069913;28;20021;-74
2022/01/03 09:07:11;;;;;;;11.95;2.83;;;12.50;74.80;;;;;;5078999;28;20020;-74
2022/01/03 09:09:36;;;;;;;16.73;2.92;;;12.50;74.80;;;;;;5059507;28;20047;-74
2022/01/03 09:12:04;;;;;;;15.30;3.78;;;12.50;74.70;;;;;;5079273;28;20028;-74
2022/01/03 09:14:30;;;;;;;12.60;3.13;;;12.50;74.70;;;;;;5076464;28;20021;-74
2022/01/03 09:16:55;;;;;;;12.45;3.10;;;12.50;74.70;;;;;;5076295;28;20090;-74
2022/01/03 09:19:21;;;;;;;9.63;2.90;;;12.50;74.70;;;;;;5078321;28;20051;-74
2022/01/03 09:21:47;;;;;;;10.43;3.00;;;12.50;74.60;;;;;;5078450;28;20028;-75
2022/01/03 09:24:53;;;;;;;13.40;3.28;;;12.50;74.60;;;;;;5071732;28;20043;-74
2022/01/03 09:30:01;;;;;;;12.15;2.85;;;12.50;74.60;;;;;;5080231;28;20109;-75
2022/01/03 09:32:27;;;;;;;14.65;3.63;;;12.60;74.70;;;;;;5077131;28;20362;-74
2022/01/03 09:34:52;;;;;;;13.43;3.17;;;12.60;74.60;;;;;;5078346;28;20020;-74
2022/01/03 09:37:20;;;;;;;14.48;3.75;;;12.50;74.60;;;;;;5077736;28;20033;-74
2022/01/03 09:39:46;;;;;;;12.00;2.70;;;12.50;74.60;;;;;;5076856;28;20021;-74
2022/01/03 09:42:19;;;;;;;12.65;3.15;;;12.50;74.60;;;;;;5064631;28;20025;-74
2022/01/03 09:44:47;;;;;;;10.48;3.00;;;12.60;74.70;;;;;;5078364;28;20032;-74
2022/01/03 09:47:16;;;;;;;12.73;3.40;;;12.50;74.70;;;;;;5078621;28;20052;-74
2022/01/03 09:49:43;;;;;;;12.70;3.40;;;12.50;74.70;;;;;;5077798;28;20774;-73
2022/01/03 09:52:09;;;;;;;14.80;3.13;;;12.50;74.70;;;;;;5080428;28;20448;-74
2022/01/03 09:54:36;;;;;;;11.95;3.20;;;12.50;74.70;;;;;;5078740;28;20025;-74
2022/01/03 09:57:03;;;;;;;10.90;2.42;;;12.50;74.70;;;;;;5059520;28;20032;-74
2022/01/03 09:59:30;;;;;;;13.73;3.58;;;12.50;74.70;;;;;;5076840;28;20032;-75
2022/01/03 10:01:56;;;;;;;11.50;3.47;;;12.60;74.70;;;;;;5060034;28;20028;-75
2022/01/03 10:04:22;;;;;;;13.20;2.83;;;12.60;74.70;;;;;;5077825;28;20024;-76
2022/01/03 10:06:48;;;;;;;13.48;3.50;;;12.60;74.70;;;;;;5061108;28;20024;-75
2022/01/03 10:09:14;;;;;;;9.90;3.05;;;12.60;74.60;;;;;;5077386;28;20059;-77
2022/01/03 10:11:40;;;;;;;12.57;3.60;;;12.50;74.60;;;;;;5058401;28;20028;-76
2022/01/03 10:14:06;;;;;;;10.45;3.03;;;12.50;74.60;;;;;;5075093;28;20107;-72
2022/01/03 10:16:32;;;;;;;11.18;2.53;;;12.60;74.60;;;;;;5074755;28;20020;-75
2022/01/03 10:18:58;;;;;;;11.75;2.83;;;12.50;74.60;;;;;;5075688;28;20056;-76
2022/01/03 10:21:34;;;;;;;9.07;2.67;;;12.60;74.60;;;;;;5074963;28;20109;-76
2022/01/03 10:24:00;;;;;;;14.20;3.17;;;12.60;74.50;;;;;;5059088;28;20025;-76
2022/01/03 10:26:26;;;;;;;12.68;2.97;;;12.70;74.40;;;;;;5071797;28;20081;-77
2022/01/03 10:29:17;;;;;;;9.60;2.55;;;12.70;74.20;;;;;;5076563;28;20364;-76
2022/01/03 10:31:46;;;;;;;10.57;2.65;;;12.80;74.00;;;;;;5072907;28;20032;-76
2022/01/03 10:34:15;;;;;;;12.60;2.78;;;12.90;73.90;;;;;;5075817;28;20060;-76
2022/01/03 10:36:43;;;;;;;14.18;3.53;;;12.90;73.80;;;;;;5074727;28;20024;-76
2022/01/03 10:39:11;;;;;;;10.48;3.13;;;12.90;73.60;;;;;;5068345;28;20032;-75
2022/01/03 10:41:37;;;;;;;13.20;3.03;;;12.90;73.60;;;;;;5075582;28;20027;-75
2022/01/03 10:44:03;;;;;;;14.43;3.42;;;13.00;73.50;;;;;;5074563;28;20123;-76
2022/01/03 10:46:31;;;;;;;10.20;2.58;;;13.10;73.20;;;;;;5071709;28;20040;-76
2022/01/03 10:49:15;;;;;;;9.23;2.88;;;13.20;73.00;;;;;;5073205;28;20047;-76
2022/01/03 10:51:42;;;;;;;15.60;3.63;;;13.20;72.80;;;;;;5078297;28;20042;-75
2022/01/03 10:54:10;;;;;;;10.23;2.83;;;13.30;72.80;;;;;;5085166;28;20011;-78
2022/01/03 10:56:41;;;;;;;15.15;3.95;;;13.40;72.70;;;;;;5059947;28;20354;-79
2022/01/03 10:59:34;;;;;;;14.80;3.35;;;13.40;72.50;;;;;;5074654;28;20048;-79
2022/01/03 11:02:07;;;;;;;15.10;4.28;;;13.40;72.50;;;;;;5074493;28;20107;-77
2022/01/03 11:13:17;;;;;;;16.23;3.75;;;13.70;71.60;;;;;;5075150;28;20029;-76
2022/01/03 11:15:51;;;;;;;12.60;3.17;;;13.60;71.60;;;;;;5075821;28;20078;-76
2022/01/03 11:18:24;;;;;;;12.73;3.03;;;13.50;71.80;;;;;;5074479;28;20017;-76
2022/01/03 11:21:16;;;;;;;8.65;3.15;;;13.50;72.00;;;;;;5073817;28;20392;-77
2022/01/03 11:23:43;;;;;;;;;;;13.40;72.10;;;;;;5075163;28;20029;-76
2022/01/03 11:26:12;;;;;;;12.48;2.40;;;13.40;72.40;;;;;;5073768;28;19923;-76
2022/01/03 11:28:40;;;;;;;14.38;3.38;;;13.40;72.40;;;;;;5075908;28;20039;-76
2022/01/03 11:31:07;;;;;;;14.85;3.60;;;13.40;72.30;;;;;;5074705;28;20120;-76
2022/01/03 11:33:37;;;;;;;13.80;3.20;;;13.40;72.30;;;;;;5075406;28;20122;-76
2022/01/03 11:36:04;;;;;;;12.93;3.33;;;13.40;72.20;;;;;;5075174;28;20089;-76
2022/01/03 11:38:31;;;;;;;12.45;3.45;;;13.50;72.20;;;;;;5074765;28;20044;-76
2022/01/03 11:41:04;;;;;;;16.45;4.32;;;13.50;72.10;;;;;;5074360;28;20028;-76
2022/01/03 11:43:32;;;;;;;14.02;2.63;;;13.50;72.10;;;;;;5075369;28;20391;-76
2022/01/03 11:45:57;;;;;;;17.83;3.35;;;13.50;72.10;;;;;;5056597;28;20068;-76
2022/01/03 11:48:26;;;;;;;17.85;3.78;;;13.50;72.10;;;;;;5073988;28;20056;-76
2022/01/03 11:50:53;;;;;;;14.02;2.95;;;13.50;72.80;;;;;;5067788;28;20117;-76
2022/01/03 11:53:23;;;;;;;13.55;3.22;;;13.40;72.20;;;;;;5060517;28;20020;-84
2022/01/03 11:55:57;;;;;;;10.85;2.95;;;13.40;72.30;;;;;;5054862;28;20040;-77
2022/01/03 11:58:45;;;;;;;8.52;3.10;;;13.40;72.30;;;;;;5073038;28;20028;-75
2022/01/03 12:03:59;;;;;;;14.50;3.35;;;13.40;72.50;;;;;;5060718;28;20025;-75
2022/01/03 12:06:33;;;;;;;8.60;2.42;;;13.30;72.40;;;;;;5070088;28;20119;-77
2022/01/03 12:09:16;;;;;;;15.15;3.28;;;13.30;72.50;;;;;;5073421;28;20047;-77
2022/01/03 12:11:43;;;;;;;14.25;3.95;;;13.30;72.70;;;;;;5073610;28;20021;-77
2022/01/03 12:14:12;;;;;;;14.15;3.30;;;13.30;72.70;;;;;;5073955;28;20445;-77
2022/01/03 12:17:02;;;;;;;11.52;3.50;;;13.30;72.70;;;;;;5073986;28;20417;-76
2022/01/03 12:19:33;;;;;;;10.13;2.67;;;13.30;72.70;;;;;;5052742;28;20055;-77
2022/01/03 12:22:06;;;;;;;12.38;2.53;;;13.30;72.70;;;;;;5073401;28;20098;-77
2022/01/03 12:24:46;;;;;;;9.07;2.83;;;13.40;72.70;;;;;;5072636;28;21642;-77
2022/01/03 12:27:16;;;;;;;12.18;3.35;;;13.40;72.60;;;;;;5073279;28;20032;-76
2022/01/03 12:29:54;;;;;;;15.68;3.47;;;13.40;72.60;;;;;;5072408;28;20432;-77
2022/01/03 12:32:23;;;;;;;11.55;3.30;;;13.40;72.50;;;;;;5055867;28;20048;-77
2022/01/03 12:35:16;;;;;;;12.57;3.40;;;13.40;72.50;;;;;;5073935;28;20031;-76
2022/01/03 12:37:54;;;;;;;13.10;3.75;;;13.30;72.50;;;;;;5070610;28;20041;-76
2022/01/03 12:40:22;;;;;;;11.20;3.22;;;13.30;72.70;;;;;;5073588;28;20475;-77
2022/01/03 12:42:52;;;;;;;10.45;3.40;;;13.30;72.80;;;;;;5071221;28;20453;-77
2022/01/03 12:45:30;;;;;;;12.57;3.05;;;13.30;72.90;;;;;;5072343;28;20032;-76
2022/01/03 12:48:22;;;;;;;11.00;2.92;;;13.20;72.80;;;;;;5073722;28;20499;-76
2022/01/03 12:50:51;;;;;;;10.00;2.75;;;13.20;72.80;;;;;;5072608;28;20032;-77
2022/01/03 12:53:29;;;;;;;9.48;3.08;;;13.20;72.90;;;;;;5072148;28;20060;-76
2022/01/03 12:56:00;;;;;;;14.40;3.35;;;13.20;72.80;;;;;;5056473;28;20101;-77
2022/01/03 12:58:26;;;;;;;11.15;2.40;;;13.20;72.90;;;;;;5071333;28;20032;-77
2022/01/03 13:00:52;;;;;;;12.55;3.10;;;13.10;73.00;;;;;;5071806;28;20029;-77
2022/01/03 13:03:32;;;;;;;15.20;3.25;;;13.20;73.00;;;;;;5052627;28;20036;-77
2022/01/03 13:06:16;;;;;;;9.70;2.65;;;13.10;72.90;;;;;;5065312;28;20412;-77
2022/01/03 13:09:02;;;;;;;12.48;2.90;;;13.10;72.90;;;;;;5070087;28;20029;-77